IK0AOC Rome IT current weather conditions

sailwx.info

Wind from 323

Air temperature 30.0° C
Dewpoint 19.1° C

Last reported at 2020-Aug-09 19:10 UTC.
Time now 2020-Aug-09 20:12 UTC

Location: N 41°47' E 012°27'.
View on Google Maps.

See reports from other nearby stations

  
Tides and Currents Weather Stations Pressure Air Temp Water Temp Dewpoint Dewpoint Depression Visibility Wind Speed Wind Dir Waves Ship Positions
date/time (UTC)wind fromknots sea level pressurealtimeterstation pressurevisibilityair tempwater tempwave heightnotes
2020-Aug-09 19:10 323 30.0
2020-Aug-09 19:05 323 30.0
2020-Aug-09 18:45 323 30.0
2020-Aug-09 18:30 329 4 gusting 12 30.6
2020-Aug-09 18:25 318 30.6
2020-Aug-09 18:20 327 1 gusting 14 30.6
2020-Aug-09 18:10 278 31.1
2020-Aug-09 18:05 283 0 gusting 13 31.1
2020-Aug-09 18:00 288 4 gusting 13 31.1
2020-Aug-09 17:50 289 31.1
2020-Aug-09 17:35 283 4 gusting 15 31.1
2020-Aug-09 17:25 280 30.6
2020-Aug-09 17:20 273 30.6
2020-Aug-09 17:15 286 0 gusting 15 30.6
2020-Aug-09 17:10 291 1 gusting 14 30.6
2020-Aug-09 17:00 283 7 gusting 26 30.6
2020-Aug-09 16:40 264 4 gusting 17 30.6
2020-Aug-09 16:30 271 9 gusting 22 30.6
2020-Aug-09 16:10 261 3 gusting 22 31.1
2020-Aug-09 16:05 268 5 gusting 24 31.1
2020-Aug-09 15:40 279 6 gusting 19 31.1
2020-Aug-09 15:30 258 1 gusting 17 31.7
2020-Aug-09 15:25 299 4 gusting 18 31.1
2020-Aug-09 15:10 291 12 gusting 34 32.2
2020-Aug-09 15:05 274 18 gusting 35 32.2
2020-Aug-09 14:55 309 4 gusting 24 32.8
2020-Aug-09 14:50 304 17 gusting 35 32.8
2020-Aug-09 14:30 276 21 gusting 38 32.8
2020-Aug-09 14:25 307 23 gusting 38 32.8
2020-Aug-09 14:20 279 15 gusting 40 32.8
2020-Aug-09 13:55 274 20 gusting 37 33.3
2020-Aug-09 13:45 269 18 gusting 37 33.3
2020-Aug-09 13:20 266 6 gusting 22 34.4
2020-Aug-09 13:15 262 13 gusting 27 34.4
2020-Aug-09 13:10 261 5 gusting 24 34.4
2020-Aug-09 13:05 294 5 gusting 17 34.4
2020-Aug-09 12:50 279 5 gusting 24 34.4
2020-Aug-09 12:45 286 7 gusting 25 34.4
2020-Aug-09 12:30 299 5 gusting 19 34.4
2020-Aug-09 12:20 255 10 gusting 27 34.4
2020-Aug-09 12:00 260 12 gusting 30 34.4
2020-Aug-09 11:45 297 15 gusting 30 34.4
2020-Aug-09 11:35 301 13 gusting 31 35.0
2020-Aug-09 11:25 006 3 gusting 13 35.6
2020-Aug-09 11:20 085 0 gusting 10 35.0
2020-Aug-09 11:15 103 5 gusting 11 35.0
2020-Aug-09 11:10 358 7 gusting 17 35.0
2020-Aug-09 11:05 277 35.0
2020-Aug-09 10:55 027 3 gusting 13 35.0
2020-Aug-09 10:45 296 2 gusting 17 34.4
2020-Aug-09 10:35 024 34.4
2020-Aug-09 10:10 339 34.4
2020-Aug-09 10:00 048 0 gusting 7 33.9
2020-Aug-09 09:45 061 8 gusting 18 32.8
2020-Aug-09 09:35 062 6 gusting 13 32.8
2020-Aug-09 09:05 048 6 gusting 18 31.7
2020-Aug-09 08:40 343 31.1
2020-Aug-09 08:30 343 30.6
2020-Aug-09 08:20 048 4 gusting 13 30.0
2020-Aug-09 08:10 040 10 gusting 17 29.4
2020-Aug-09 08:05 350 6 gusting 17 29.4
2020-Aug-09 07:50 077 1 gusting 14 28.9
2020-Aug-09 07:45 018 1 gusting 13 28.9
2020-Aug-09 07:35 049 27.8
2020-Aug-09 07:05 010 3 gusting 13 27.2
2020-Aug-09 06:55 018 10 gusting 17 26.7
2020-Aug-09 06:45 321 26.7
2020-Aug-09 06:40 045 3 gusting 11 26.7
2020-Aug-09 06:25 042 10 gusting 19 26.1
2020-Aug-09 06:10 036 10 gusting 18 25.6
2020-Aug-09 06:05 044 8 gusting 19 25.6
2020-Aug-09 05:55 035 7 gusting 17 25.6
2020-Aug-09 05:45 038 0 gusting 13 25.0
2020-Aug-09 05:10 045 8 gusting 13 23.9
2020-Aug-09 05:00 050 23.9
2020-Aug-09 04:55 051 23.3
2020-Aug-09 04:35 041 23.3
2020-Aug-09 04:25 060 23.3
2020-Aug-09 04:15 047 23.9
2020-Aug-09 04:00 056 23.9
2020-Aug-09 03:50 043 5 gusting 10 23.9
2020-Aug-09 03:45 038 5 gusting 10 23.9
2020-Aug-09 03:35 039 1 gusting 8 23.9
2020-Aug-09 03:20 045 4 gusting 10 24.4
2020-Aug-09 03:15 052 4 gusting 10 24.4
2020-Aug-09 03:10 046 5 gusting 10 24.4
2020-Aug-09 02:55 054 1 gusting 6 24.4
2020-Aug-09 02:45 039 25.0
2020-Aug-09 02:35 031 6 gusting 10 25.0
2020-Aug-09 02:30 036 6 gusting 10 25.0
2020-Aug-09 02:00 042 7 gusting 14 25.6
2020-Aug-09 01:50 045 10 gusting 13 26.1
2020-Aug-09 01:20 031 1 gusting 11 25.6
2020-Aug-09 01:15 032 0 gusting 11 25.6
2020-Aug-09 01:05 048 1 gusting 13 25.6
2020-Aug-09 01:00 044 11 gusting 15 25.6
2020-Aug-09 00:55 051 6 gusting 13 25.6
2020-Aug-09 00:45 051 0 gusting 10 26.1
2020-Aug-09 00:40 039 26.1
2020-Aug-09 00:25 018 26.7
2020-Aug-09 00:20 041 26.1
2020-Aug-09 00:15 355 26.1
2020-Aug-09 00:05 331 26.7
2020-Aug-09 00:00 343 26.7
2020-Aug-08 23:40 013 27.2
2020-Aug-08 23:20 332 26.7
2020-Aug-08 23:00 033 27.2
2020-Aug-08 22:55 035 27.2
2020-Aug-08 22:40 037 27.8
2020-Aug-08 22:25 011 27.8
2020-Aug-08 22:15 014 27.8
2020-Aug-08 22:05 161 27.8
2020-Aug-08 21:50 161 27.2
2020-Aug-08 20:50 178 27.2
2020-Aug-08 20:35 174 27.2
2020-Aug-08 20:30 170 27.8
2020-Aug-08 20:20 189 27.8
2020-Aug-08 20:10 175 27.8
2020-Aug-08 20:05 181 27.8
2020-Aug-08 19:40 163 28.3
2020-Aug-08 19:30 187 28.3
2020-Aug-08 19:20 174 28.3
2020-Aug-08 19:15 167 28.3
2020-Aug-08 19:05 171 28.3
2020-Aug-08 19:00 179 28.9
2020-Aug-08 18:40 161 28.9
2020-Aug-08 18:35 192 28.9
2020-Aug-08 18:25 181 29.4
2020-Aug-08 18:10 170 29.4
2020-Aug-08 17:50 184 30.0
2020-Aug-08 17:45 164 0 gusting 12 30.6
2020-Aug-08 17:40 169 30.6
2020-Aug-08 17:30 152 1 gusting 17 30.6
2020-Aug-08 17:15 184 0 gusting 20 31.1
2020-Aug-08 17:10 125 4 gusting 19 31.7
2020-Aug-08 16:55 140 0 gusting 13 31.7
2020-Aug-08 16:50 149 0 gusting 19 32.2
2020-Aug-08 16:45 137 1 gusting 22 32.2
2020-Aug-08 16:35 115 1 gusting 13 33.9
2020-Aug-08 16:30 082 2 gusting 13 34.4
2020-Aug-08 16:20 024 15 gusting 22 34.4
2020-Aug-08 16:15 035 12 gusting 20 34.4
2020-Aug-08 16:10 351 7 gusting 19 34.4
2020-Aug-08 16:05 009 1 gusting 20 34.4
2020-Aug-08 15:50 036 5 gusting 19 34.4
2020-Aug-08 15:45 009 10 gusting 19 34.4
2020-Aug-08 15:35 005 7 gusting 22 34.4
2020-Aug-08 15:25 026 13 gusting 32 34.4
2020-Aug-08 15:20 357 18 gusting 32 35.0
2020-Aug-08 15:15 008 17 gusting 30 34.4
2020-Aug-08 15:10 006 18 gusting 33 35.0
2020-Aug-08 14:40 009 14 gusting 28 35.0
2020-Aug-08 14:35 003 13 gusting 30 35.0
2020-Aug-08 14:20 033 10 gusting 28 35.0
2020-Aug-08 13:55 001 14 gusting 32 34.4
2020-Aug-08 13:45 34.4
2020-Aug-08 13:35 001 11 gusting 22 33.9
2020-Aug-08 13:30 018 17 gusting 25 33.9
2020-Aug-08 13:15 355 17 gusting 33 34.4
2020-Aug-08 13:00 026 6 gusting 30 34.4
2020-Aug-08 12:50 346 15 gusting 30 34.4
2020-Aug-08 12:45 357 7 gusting 22 34.4
2020-Aug-08 12:30 029 13 gusting 26 33.9
2020-Aug-08 12:25 016 18 gusting 30 34.4
2020-Aug-08 11:55 348 7 gusting 24 33.9
2020-Aug-08 11:50 025 0 gusting 13 33.9
2020-Aug-08 11:45 040 10 gusting 22 33.9
2020-Aug-08 11:35 045 3 gusting 17 33.3
2020-Aug-08 11:25 019 11 gusting 18 33.3
2020-Aug-08 11:10 328 15 gusting 30 33.9
2020-Aug-08 10:40 353 13 gusting 22 32.8
2020-Aug-08 10:35 356 15 gusting 19 32.8
2020-Aug-08 10:30 315 11 gusting 18 32.8
2020-Aug-08 10:25 011 11 gusting 17 32.2
2020-Aug-08 10:15 018 17 gusting 28 32.2
2020-Aug-08 10:10 032 11 gusting 19 32.2
2020-Aug-08 09:45 351 16 gusting 21 31.7
2020-Aug-08 09:40 052 8 gusting 25 31.1
2020-Aug-08 09:10 016 14 gusting 24 31.1
2020-Aug-08 08:55 031 13 gusting 26 30.6
2020-Aug-08 08:50 037 12 gusting 19 30.6
2020-Aug-08 08:40 350 5 gusting 18 30.0
2020-Aug-08 08:35 032 14 gusting 26 29.4
2020-Aug-08 08:25 005 14 gusting 25 29.4
2020-Aug-08 08:10 011 15 gusting 26 28.9
2020-Aug-08 07:55 042 8 gusting 32 28.3
2020-Aug-08 07:50 036 13 gusting 26 28.3
2020-Aug-08 07:45 035 10 gusting 22 27.8
2020-Aug-08 07:40 014 17 gusting 28 27.8
2020-Aug-08 07:30 355 6 gusting 26 27.2
2020-Aug-08 06:55 005 14 gusting 26 26.7
2020-Aug-08 06:45 356 8 gusting 19 26.1
2020-Aug-08 06:40 027 7 gusting 21 26.1
2020-Aug-08 06:30 009 14 gusting 28 25.6
2020-Aug-08 06:25 352 1 gusting 18 25.6
2020-Aug-08 06:20 038 0 gusting 17 25.6
2020-Aug-08 05:55 003 8 gusting 19 25.0
2020-Aug-08 05:50 016 8 gusting 22 25.0
2020-Aug-08 05:40 017 9 gusting 22 25.0
2020-Aug-08 05:06 012 6 gusting 18 24.4
2020-Aug-08 04:35 003 13 gusting 25 23.9
2020-Aug-08 04:30 353 8 gusting 25 23.9
2020-Aug-08 04:20 355 10 gusting 19 23.3
2020-Aug-08 04:10 015 23.3
2020-Aug-08 04:00 045 23.3
2020-Aug-08 03:55 045 23.3
2020-Aug-08 03:50 057 0 gusting 8 23.3
2020-Aug-08 03:25 049 6 gusting 13 23.9
2020-Aug-08 03:20 033 2 gusting 13 24.4
2020-Aug-08 03:05 345 4 gusting 21 24.4
2020-Aug-08 02:45 026 4 gusting 12 24.4
2020-Aug-08 02:25 012 5 gusting 12 24.4
2020-Aug-08 02:15 268 1 gusting 17 24.4
2020-Aug-08 02:05 349 6 gusting 20 24.4
2020-Aug-08 02:00 007 2 gusting 14 24.4
2020-Aug-08 01:50 342 6 gusting 14 24.4
2020-Aug-08 01:45 005 4 gusting 13 24.4
2020-Aug-08 01:00 004 1 gusting 13 25.0
2020-Aug-08 00:55 25.0
2020-Aug-08 00:50 003 5 gusting 13 25.0
2020-Aug-08 00:45 354 6 gusting 18 25.0
2020-Aug-08 00:40 351 6 gusting 17 25.0
2020-Aug-08 00:35 25.0
2020-Aug-08 00:25 006 2 gusting 15 25.6
2020-Aug-08 00:10 009 6 gusting 11 25.6
2020-Aug-08 00:05 356 5 gusting 13 25.6
2020-Aug-07 23:40 005 6 gusting 11 25.6
2020-Aug-07 23:15 031 0 gusting 6 23.9
2020-Aug-07 23:05 311 24.4
2020-Aug-07 23:00 311 24.4
2020-Aug-07 22:40 263 24.4
2020-Aug-07 22:25 261 24.4
2020-Aug-07 22:20 261 24.4
2020-Aug-07 21:50 340 25.0
2020-Aug-07 21:45 340 24.4
2020-Aug-07 21:25 079 25.0
2020-Aug-07 21:20 082 25.0
2020-Aug-07 21:15 063 25.0
2020-Aug-07 21:10 053 25.0
2020-Aug-07 20:55 076 25.0
2020-Aug-07 20:20 125 25.0
2020-Aug-07 20:10 152 25.0